sensor_id;sensor_type;location;lat;lon;timestamp;P1;durP1;ratioP1;P2;durP2;ratioP2
28176;SDS011;15461;41.652;9.378;2024-02-04T00:00:30;4.43;;;3.58;;
28176;SDS011;15461;41.652;9.378;2024-02-04T00:02:56;4.75;;;3.40;;
28176;SDS011;15461;41.652;9.378;2024-02-04T00:05:21;6.85;;;3.83;;
28176;SDS011;15461;41.652;9.378;2024-02-04T00:07:47;6.57;;;3.38;;
28176;SDS011;15461;41.652;9.378;2024-02-04T00:10:13;6.20;;;3.78;;
28176;SDS011;15461;41.652;9.378;2024-02-04T00:12:41;6.70;;;3.75;;
28176;SDS011;15461;41.652;9.378;2024-02-04T00:15:07;5.60;;;3.33;;
28176;SDS011;15461;41.652;9.378;2024-02-04T00:17:33;7.03;;;3.30;;
28176;SDS011;15461;41.652;9.378;2024-02-04T00:19:59;5.22;;;3.85;;
28176;SDS011;15461;41.652;9.378;2024-02-04T00:22:26;6.15;;;3.63;;
28176;SDS011;15461;41.652;9.378;2024-02-04T00:24:53;6.47;;;4.10;;
28176;SDS011;15461;41.652;9.378;2024-02-04T00:27:19;5.93;;;3.67;;
28176;SDS011;15461;41.652;9.378;2024-02-04T00:29:44;7.75;;;3.80;;
28176;SDS011;15461;41.652;9.378;2024-02-04T00:32:10;5.25;;;3.28;;
28176;SDS011;15461;41.652;9.378;2024-02-04T00:34:36;6.07;;;3.20;;
28176;SDS011;15461;41.652;9.378;2024-02-04T00:37:02;5.75;;;3.72;;
28176;SDS011;15461;41.652;9.378;2024-02-04T00:39:28;5.78;;;3.60;;
28176;SDS011;15461;41.652;9.378;2024-02-04T00:41:53;5.93;;;3.38;;
28176;SDS011;15461;41.652;9.378;2024-02-04T00:44:19;9.48;;;3.38;;
28176;SDS011;15461;41.652;9.378;2024-02-04T00:46:45;7.50;;;3.80;;
28176;SDS011;15461;41.652;9.378;2024-02-04T00:49:11;6.40;;;3.53;;
28176;SDS011;15461;41.652;9.378;2024-02-04T00:51:36;7.55;;;3.80;;
28176;SDS011;15461;41.652;9.378;2024-02-04T00:54:02;5.55;;;3.40;;
28176;SDS011;15461;41.652;9.378;2024-02-04T00:56:28;5.93;;;3.72;;
28176;SDS011;15461;41.652;9.378;2024-02-04T00:58:54;5.10;;;3.72;;
28176;SDS011;15461;41.652;9.378;2024-02-04T01:01:20;6.57;;;3.90;;
28176;SDS011;15461;41.652;9.378;2024-02-04T01:03:46;5.28;;;3.38;;
28176;SDS011;15461;41.652;9.378;2024-02-04T01:06:12;6.40;;;3.47;;
28176;SDS011;15461;41.652;9.378;2024-02-04T01:08:37;6.35;;;3.85;;
28176;SDS011;15461;41.652;9.378;2024-02-04T01:11:06;6.25;;;3.30;;
28176;SDS011;15461;41.652;9.378;2024-02-04T01:13:32;4.97;;;3.22;;
28176;SDS011;15461;41.652;9.378;2024-02-04T01:15:58;5.95;;;3.80;;
28176;SDS011;15461;41.652;9.378;2024-02-04T01:18:24;7.25;;;3.95;;
28176;SDS011;15461;41.652;9.378;2024-02-04T01:20:49;6.75;;;3.60;;
28176;SDS011;15461;41.652;9.378;2024-02-04T01:23:15;6.15;;;3.78;;
28176;SDS011;15461;41.652;9.378;2024-02-04T01:25:44;5.15;;;3.63;;
28176;SDS011;15461;41.652;9.378;2024-02-04T01:28:11;6.22;;;3.63;;
28176;SDS011;15461;41.652;9.378;2024-02-04T01:30:36;7.88;;;4.10;;
28176;SDS011;15461;41.652;9.378;2024-02-04T01:33:02;7.63;;;3.47;;
28176;SDS011;15461;41.652;9.378;2024-02-04T01:35:28;5.55;;;3.67;;
28176;SDS011;15461;41.652;9.378;2024-02-04T01:37:54;5.32;;;3.78;;
28176;SDS011;15461;41.652;9.378;2024-02-04T01:40:20;5.00;;;3.55;;
28176;SDS011;15461;41.652;9.378;2024-02-04T01:42:46;6.30;;;3.42;;
28176;SDS011;15461;41.652;9.378;2024-02-04T01:45:12;4.85;;;3.58;;
28176;SDS011;15461;41.652;9.378;2024-02-04T01:47:37;6.28;;;3.90;;
28176;SDS011;15461;41.652;9.378;2024-02-04T01:50:03;4.07;;;3.17;;
28176;SDS011;15461;41.652;9.378;2024-02-04T01:52:31;6.25;;;3.13;;
28176;SDS011;15461;41.652;9.378;2024-02-04T01:55:01;5.93;;;3.78;;
28176;SDS011;15461;41.652;9.378;2024-02-04T01:57:30;6.15;;;3.72;;
28176;SDS011;15461;41.652;9.378;2024-02-04T01:59:57;7.22;;;3.40;;
28176;SDS011;15461;41.652;9.378;2024-02-04T02:02:23;5.38;;;3.38;;
28176;SDS011;15461;41.652;9.378;2024-02-04T02:04:50;8.32;;;3.88;;
28176;SDS011;15461;41.652;9.378;2024-02-04T02:07:17;6.90;;;3.65;;
28176;SDS011;15461;41.652;9.378;2024-02-04T02:09:46;6.63;;;3.40;;
28176;SDS011;15461;41.652;9.378;2024-02-04T02:12:34;6.18;;;3.58;;
28176;SDS011;15461;41.652;9.378;2024-02-04T02:15:14;7.50;;;3.30;;
28176;SDS011;15461;41.652;9.378;2024-02-04T02:17:55;6.20;;;3.50;;
28176;SDS011;15461;41.652;9.378;2024-02-04T02:20:27;6.45;;;3.67;;
28176;SDS011;15461;41.652;9.378;2024-02-04T02:23:08;5.15;;;3.40;;
28176;SDS011;15461;41.652;9.378;2024-02-04T02:25:38;8.27;;;3.50;;
28176;SDS011;15461;41.652;9.378;2024-02-04T02:28:06;7.53;;;3.50;;
28176;SDS011;15461;41.652;9.378;2024-02-04T02:30:32;5.70;;;3.67;;
28176;SDS011;15461;41.652;9.378;2024-02-04T02:32:58;7.22;;;3.83;;
28176;SDS011;15461;41.652;9.378;2024-02-04T02:35:25;5.53;;;3.67;;
28176;SDS011;15461;41.652;9.378;2024-02-04T02:43:16;6.00;;;3.60;;
28176;SDS011;15461;41.652;9.378;2024-02-04T02:45:44;5.97;;;3.40;;
28176;SDS011;15461;41.652;9.378;2024-02-04T02:48:10;4.95;;;3.53;;
28176;SDS011;15461;41.652;9.378;2024-02-04T02:50:37;7.25;;;3.80;;
28176;SDS011;15461;41.652;9.378;2024-02-04T02:53:03;5.80;;;4.38;;
28176;SDS011;15461;41.652;9.378;2024-02-04T02:55:30;6.80;;;3.65;;
28176;SDS011;15461;41.652;9.378;2024-02-04T02:57:55;6.47;;;3.92;;
28176;SDS011;15461;41.652;9.378;2024-02-04T03:00:21;7.07;;;3.85;;
28176;SDS011;15461;41.652;9.378;2024-02-04T03:02:47;7.93;;;3.83;;
28176;SDS011;15461;41.652;9.378;2024-02-04T03:05:15;5.70;;;3.47;;
28176;SDS011;15461;41.652;9.378;2024-02-04T03:07:41;5.40;;;3.42;;
28176;SDS011;15461;41.652;9.378;2024-02-04T03:10:08;5.15;;;3.13;;
28176;SDS011;15461;41.652;9.378;2024-02-04T03:12:34;5.65;;;3.80;;
28176;SDS011;15461;41.652;9.378;2024-02-04T03:15:00;5.03;;;3.17;;
28176;SDS011;15461;41.652;9.378;2024-02-04T03:17:26;6.95;;;3.90;;
28176;SDS011;15461;41.652;9.378;2024-02-04T03:19:52;6.10;;;3.50;;
28176;SDS011;15461;41.652;9.378;2024-02-04T03:22:20;5.82;;;3.50;;
28176;SDS011;15461;41.652;9.378;2024-02-04T03:24:48;6.28;;;3.55;;
28176;SDS011;15461;41.652;9.378;2024-02-04T03:27:16;6.63;;;3.95;;
28176;SDS011;15461;41.652;9.378;2024-02-04T03:29:43;7.28;;;3.35;;
28176;SDS011;15461;41.652;9.378;2024-02-04T03:32:12;7.00;;;3.80;;
28176;SDS011;15461;41.652;9.378;2024-02-04T03:34:38;5.10;;;3.47;;
28176;SDS011;15461;41.652;9.378;2024-02-04T03:37:06;5.75;;;3.55;;
28176;SDS011;15461;41.652;9.378;2024-02-04T03:39:32;8.93;;;3.75;;
28176;SDS011;15461;41.652;9.378;2024-02-04T03:41:58;5.28;;;3.30;;
28176;SDS011;15461;41.652;9.378;2024-02-04T03:44:24;6.30;;;3.90;;
28176;SDS011;15461;41.652;9.378;2024-02-04T03:46:50;4.65;;;3.30;;
28176;SDS011;15461;41.652;9.378;2024-02-04T03:49:17;5.45;;;3.47;;
28176;SDS011;15461;41.652;9.378;2024-02-04T03:51:43;5.30;;;3.13;;
28176;SDS011;15461;41.652;9.378;2024-02-04T03:54:09;4.10;;;2.85;;
28176;SDS011;15461;41.652;9.378;2024-02-04T03:56:35;5.38;;;3.88;;
28176;SDS011;15461;41.652;9.378;2024-02-04T03:59:01;4.53;;;3.30;;
28176;SDS011;15461;41.652;9.378;2024-02-04T04:01:27;4.32;;;3.45;;
28176;SDS011;15461;41.652;9.378;2024-02-04T04:03:53;7.13;;;3.75;;
28176;SDS011;15461;41.652;9.378;2024-02-04T04:06:18;4.07;;;3.17;;
28176;SDS011;15461;41.652;9.378;2024-02-04T04:08:44;5.57;;;3.40;;
28176;SDS011;15461;41.652;9.378;2024-02-04T04:11:10;5.63;;;3.35;;
28176;SDS011;15461;41.652;9.378;2024-02-04T04:13:37;5.28;;;3.20;;
28176;SDS011;15461;41.652;9.378;2024-02-04T04:16:03;5.22;;;3.47;;
28176;SDS011;15461;41.652;9.378;2024-02-04T04:18:29;6.57;;;3.63;;
28176;SDS011;15461;41.652;9.378;2024-02-04T04:20:55;7.80;;;3.67;;
28176;SDS011;15461;41.652;9.378;2024-02-04T04:23:21;5.30;;;3.20;;
28176;SDS011;15461;41.652;9.378;2024-02-04T04:25:47;4.47;;;3.40;;
28176;SDS011;15461;41.652;9.378;2024-02-04T04:28:13;5.03;;;2.85;;
28176;SDS011;15461;41.652;9.378;2024-02-04T04:30:39;7.43;;;3.70;;
28176;SDS011;15461;41.652;9.378;2024-02-04T04:33:04;5.07;;;3.30;;
28176;SDS011;15461;41.652;9.378;2024-02-04T04:35:31;3.72;;;2.78;;
28176;SDS011;15461;41.652;9.378;2024-02-04T04:37:57;5.13;;;3.50;;
28176;SDS011;15461;41.652;9.378;2024-02-04T04:40:23;4.82;;;3.40;;
28176;SDS011;15461;41.652;9.378;2024-02-04T04:42:49;6.20;;;3.70;;
28176;SDS011;15461;41.652;9.378;2024-02-04T04:45:15;3.60;;;3.03;;
28176;SDS011;15461;41.652;9.378;2024-02-04T04:47:40;5.32;;;3.17;;
28176;SDS011;15461;41.652;9.378;2024-02-04T04:50:06;5.80;;;3.20;;
28176;SDS011;15461;41.652;9.378;2024-02-04T04:52:32;4.78;;;3.30;;
28176;SDS011;15461;41.652;9.378;2024-02-04T04:54:58;4.28;;;2.92;;
28176;SDS011;15461;41.652;9.378;2024-02-04T04:57:24;4.63;;;3.25;;
28176;SDS011;15461;41.652;9.378;2024-02-04T04:59:50;6.43;;;3.05;;
28176;SDS011;15461;41.652;9.378;2024-02-04T05:02:16;4.97;;;3.13;;
28176;SDS011;15461;41.652;9.378;2024-02-04T05:04:44;7.03;;;3.13;;
28176;SDS011;15461;41.652;9.378;2024-02-04T05:07:11;5.05;;;3.45;;
28176;SDS011;15461;41.652;9.378;2024-02-04T05:09:36;4.93;;;3.40;;
28176;SDS011;15461;41.652;9.378;2024-02-04T05:12:03;6.22;;;3.97;;
28176;SDS011;15461;41.652;9.378;2024-02-04T05:14:29;5.07;;;3.45;;
28176;SDS011;15461;41.652;9.378;2024-02-04T05:16:54;4.55;;;3.60;;
28176;SDS011;15461;41.652;9.378;2024-02-04T05:19:20;5.90;;;3.55;;
28176;SDS011;15461;41.652;9.378;2024-02-04T05:21:46;5.45;;;3.45;;
28176;SDS011;15461;41.652;9.378;2024-02-04T05:24:12;4.30;;;3.08;;
28176;SDS011;15461;41.652;9.378;2024-02-04T05:26:38;6.22;;;3.50;;
28176;SDS011;15461;41.652;9.378;2024-02-04T05:29:04;5.35;;;3.10;;
28176;SDS011;15461;41.652;9.378;2024-02-04T05:31:29;6.47;;;3.90;;
28176;SDS011;15461;41.652;9.378;2024-02-04T05:33:55;4.88;;;3.53;;
28176;SDS011;15461;41.652;9.378;2024-02-04T05:36:21;4.68;;;3.25;;
28176;SDS011;15461;41.652;9.378;2024-02-04T05:38:47;6.07;;;3.85;;
28176;SDS011;15461;41.652;9.378;2024-02-04T05:41:13;7.18;;;3.75;;
28176;SDS011;15461;41.652;9.378;2024-02-04T05:43:39;5.50;;;3.47;;
28176;SDS011;15461;41.652;9.378;2024-02-04T05:46:05;6.15;;;3.40;;
28176;SDS011;15461;41.652;9.378;2024-02-04T05:48:30;5.38;;;3.35;;
28176;SDS011;15461;41.652;9.378;2024-02-04T05:50:56;6.03;;;3.72;;
28176;SDS011;15461;41.652;9.378;2024-02-04T05:53:22;7.03;;;3.70;;
28176;SDS011;15461;41.652;9.378;2024-02-04T05:55:48;5.63;;;3.80;;
28176;SDS011;15461;41.652;9.378;2024-02-04T05:58:14;6.30;;;3.72;;
28176;SDS011;15461;41.652;9.378;2024-02-04T06:00:40;5.72;;;3.50;;
28176;SDS011;15461;41.652;9.378;2024-02-04T06:03:06;6.35;;;3.58;;
28176;SDS011;15461;41.652;9.378;2024-02-04T06:05:32;6.18;;;3.78;;
28176;SDS011;15461;41.652;9.378;2024-02-04T06:07:58;5.95;;;3.85;;
28176;SDS011;15461;41.652;9.378;2024-02-04T06:10:23;9.27;;;4.15;;
28176;SDS011;15461;41.652;9.378;2024-02-04T06:12:49;6.90;;;3.88;;
28176;SDS011;15461;41.652;9.378;2024-02-04T06:15:15;6.28;;;3.90;;
28176;SDS011;15461;41.652;9.378;2024-02-04T06:17:41;8.60;;;3.60;;
28176;SDS011;15461;41.652;9.378;2024-02-04T06:20:08;7.25;;;3.83;;
28176;SDS011;15461;41.652;9.378;2024-02-04T06:22:34;5.05;;;3.40;;
28176;SDS011;15461;41.652;9.378;2024-02-04T06:25:01;4.35;;;3.42;;
28176;SDS011;15461;41.652;9.378;2024-02-04T06:27:27;5.55;;;3.35;;
28176;SDS011;15461;41.652;9.378;2024-02-04T06:29:53;5.60;;;3.40;;
28176;SDS011;15461;41.652;9.378;2024-02-04T06:32:19;5.93;;;3.75;;
28176;SDS011;15461;41.652;9.378;2024-02-04T06:34:45;6.10;;;3.90;;
28176;SDS011;15461;41.652;9.378;2024-02-04T06:37:11;6.22;;;3.97;;
28176;SDS011;15461;41.652;9.378;2024-02-04T06:39:37;4.10;;;3.33;;
28176;SDS011;15461;41.652;9.378;2024-02-04T06:42:04;6.93;;;3.75;;
28176;SDS011;15461;41.652;9.378;2024-02-04T06:44:30;5.97;;;3.50;;
28176;SDS011;15461;41.652;9.378;2024-02-04T06:46:55;5.38;;;3.53;;
28176;SDS011;15461;41.652;9.378;2024-02-04T06:49:21;9.88;;;3.97;;
28176;SDS011;15461;41.652;9.378;2024-02-04T06:51:47;6.05;;;4.00;;
28176;SDS011;15461;41.652;9.378;2024-02-04T06:54:13;6.03;;;4.00;;
28176;SDS011;15461;41.652;9.378;2024-02-04T06:56:39;6.47;;;4.18;;
28176;SDS011;15461;41.652;9.378;2024-02-04T06:59:05;9.43;;;4.78;;
28176;SDS011;15461;41.652;9.378;2024-02-04T07:01:34;5.20;;;3.67;;
28176;SDS011;15461;41.652;9.378;2024-02-04T07:04:00;7.82;;;3.85;;
28176;SDS011;15461;41.652;9.378;2024-02-04T07:06:25;9.77;;;4.40;;
28176;SDS011;15461;41.652;9.378;2024-02-04T07:08:51;5.93;;;3.70;;
28176;SDS011;15461;41.652;9.378;2024-02-04T07:11:17;4.82;;;3.28;;
28176;SDS011;15461;41.652;9.378;2024-02-04T07:13:43;8.05;;;3.92;;
28176;SDS011;15461;41.652;9.378;2024-02-04T07:16:09;5.75;;;3.40;;
28176;SDS011;15461;41.652;9.378;2024-02-04T07:18:35;7.00;;;3.60;;
28176;SDS011;15461;41.652;9.378;2024-02-04T07:21:00;9.13;;;4.50;;
28176;SDS011;15461;41.652;9.378;2024-02-04T07:23:26;9.45;;;4.25;;
28176;SDS011;15461;41.652;9.378;2024-02-04T07:25:52;8.88;;;3.70;;
28176;SDS011;15461;41.652;9.378;2024-02-04T07:28:18;5.35;;;3.40;;
28176;SDS011;15461;41.652;9.378;2024-02-04T07:30:43;5.10;;;3.50;;
28176;SDS011;15461;41.652;9.378;2024-02-04T07:33:09;6.65;;;3.85;;
28176;SDS011;15461;41.652;9.378;2024-02-04T07:35:35;6.25;;;3.75;;
28176;SDS011;15461;41.652;9.378;2024-02-04T07:38:01;5.22;;;3.53;;
28176;SDS011;15461;41.652;9.378;2024-02-04T07:40:27;5.75;;;3.60;;
28176;SDS011;15461;41.652;9.378;2024-02-04T07:42:53;7.65;;;3.70;;
28176;SDS011;15461;41.652;9.378;2024-02-04T07:45:20;5.72;;;3.53;;
28176;SDS011;15461;41.652;9.378;2024-02-04T07:47:45;9.70;;;3.70;;
28176;SDS011;15461;41.652;9.378;2024-02-04T07:50:11;4.90;;;3.53;;
28176;SDS011;15461;41.652;9.378;2024-02-04T07:52:37;5.32;;;3.30;;
28176;SDS011;15461;41.652;9.378;2024-02-04T07:55:03;7.28;;;4.05;;
28176;SDS011;15461;41.652;9.378;2024-02-04T07:57:29;6.38;;;3.63;;
28176;SDS011;15461;41.652;9.378;2024-02-04T07:59:55;8.68;;;3.97;;
28176;SDS011;15461;41.652;9.378;2024-02-04T08:02:20;8.15;;;4.15;;
28176;SDS011;15461;41.652;9.378;2024-02-04T08:04:46;6.18;;;3.55;;
28176;SDS011;15461;41.652;9.378;2024-02-04T08:07:12;7.22;;;4.18;;
28176;SDS011;15461;41.652;9.378;2024-02-04T08:09:38;5.20;;;3.75;;
28176;SDS011;15461;41.652;9.378;2024-02-04T08:12:04;8.40;;;4.28;;
28176;SDS011;15461;41.652;9.378;2024-02-04T08:14:30;5.53;;;3.60;;
28176;SDS011;15461;41.652;9.378;2024-02-04T08:16:55;7.53;;;3.65;;
28176;SDS011;15461;41.652;9.378;2024-02-04T08:19:21;6.05;;;3.97;;
28176;SDS011;15461;41.652;9.378;2024-02-04T08:21:47;5.38;;;3.83;;
28176;SDS011;15461;41.652;9.378;2024-02-04T08:24:13;6.40;;;3.80;;
28176;SDS011;15461;41.652;9.378;2024-02-04T08:26:39;4.88;;;3.47;;
28176;SDS011;15461;41.652;9.378;2024-02-04T08:29:05;5.70;;;3.67;;
28176;SDS011;15461;41.652;9.378;2024-02-04T08:31:31;9.70;;;4.43;;
28176;SDS011;15461;41.652;9.378;2024-02-04T08:33:58;10.02;;;4.25;;
28176;SDS011;15461;41.652;9.378;2024-02-04T08:36:24;10.07;;;3.90;;
28176;SDS011;15461;41.652;9.378;2024-02-04T08:38:49;11.77;;;3.85;;
28176;SDS011;15461;41.652;9.378;2024-02-04T08:41:15;9.15;;;4.43;;
28176;SDS011;15461;41.652;9.378;2024-02-04T08:43:41;7.18;;;4.00;;
28176;SDS011;15461;41.652;9.378;2024-02-04T08:46:07;7.50;;;4.28;;
28176;SDS011;15461;41.652;9.378;2024-02-04T08:48:32;4.95;;;3.70;;
28176;SDS011;15461;41.652;9.378;2024-02-04T08:50:58;6.93;;;3.40;;
28176;SDS011;15461;41.652;9.378;2024-02-04T08:53:24;16.02;;;3.67;;
28176;SDS011;15461;41.652;9.378;2024-02-04T08:55:50;12.82;;;3.58;;
28176;SDS011;15461;41.652;9.378;2024-02-04T08:58:16;8.82;;;3.65;;
28176;SDS011;15461;41.652;9.378;2024-02-04T09:00:41;10.18;;;3.92;;
28176;SDS011;15461;41.652;9.378;2024-02-04T09:03:07;12.52;;;3.30;;
28176;SDS011;15461;41.652;9.378;2024-02-04T09:05:33;15.82;;;3.92;;
28176;SDS011;15461;41.652;9.378;2024-02-04T09:07:59;7.40;;;2.60;;
28176;SDS011;15461;41.652;9.378;2024-02-04T09:10:24;9.50;;;3.08;;
28176;SDS011;15461;41.652;9.378;2024-02-04T09:12:50;6.25;;;2.88;;
28176;SDS011;15461;41.652;9.378;2024-02-04T09:15:16;9.75;;;3.10;;
28176;SDS011;15461;41.652;9.378;2024-02-04T09:17:42;13.40;;;3.92;;
28176;SDS011;15461;41.652;9.378;2024-02-04T09:20:07;7.22;;;3.53;;
28176;SDS011;15461;41.652;9.378;2024-02-04T09:22:34;9.50;;;3.47;;
28176;SDS011;15461;41.652;9.378;2024-02-04T09:24:59;5.95;;;3.38;;
28176;SDS011;15461;41.652;9.378;2024-02-04T09:27:25;9.23;;;2.85;;
28176;SDS011;15461;41.652;9.378;2024-02-04T09:29:51;7.82;;;3.17;;
28176;SDS011;15461;41.652;9.378;2024-02-04T09:32:17;12.40;;;2.88;;
28176;SDS011;15461;41.652;9.378;2024-02-04T09:34:43;10.52;;;3.00;;
28176;SDS011;15461;41.652;9.378;2024-02-04T09:37:08;6.47;;;3.00;;
28176;SDS011;15461;41.652;9.378;2024-02-04T09:39:34;5.40;;;2.70;;
28176;SDS011;15461;41.652;9.378;2024-02-04T09:42:00;5.78;;;2.80;;
28176;SDS011;15461;41.652;9.378;2024-02-04T09:44:26;14.00;;;2.70;;
28176;SDS011;15461;41.652;9.378;2024-02-04T09:46:53;5.50;;;2.78;;
28176;SDS011;15461;41.652;9.378;2024-02-04T09:49:19;5.68;;;2.88;;
28176;SDS011;15461;41.652;9.378;2024-02-04T09:51:46;11.32;;;3.22;;
28176;SDS011;15461;41.652;9.378;2024-02-04T09:54:13;10.85;;;2.50;;
28176;SDS011;15461;41.652;9.378;2024-02-04T09:56:41;4.70;;;2.70;;
28176;SDS011;15461;41.652;9.378;2024-02-04T09:59:07;13.20;;;3.70;;
28176;SDS011;15461;41.652;9.378;2024-02-04T10:01:33;13.32;;;2.90;;
28176;SDS011;15461;41.652;9.378;2024-02-04T10:04:01;8.30;;;3.25;;
28176;SDS011;15461;41.652;9.378;2024-02-04T10:06:27;9.05;;;3.00;;
28176;SDS011;15461;41.652;9.378;2024-02-04T10:08:53;6.40;;;3.30;;
28176;SDS011;15461;41.652;9.378;2024-02-04T10:11:19;7.15;;;2.80;;
28176;SDS011;15461;41.652;9.378;2024-02-04T10:13:48;12.48;;;3.13;;
28176;SDS011;15461;41.652;9.378;2024-02-04T10:16:15;6.90;;;2.80;;
28176;SDS011;15461;41.652;9.378;2024-02-04T10:18:42;8.07;;;2.88;;
28176;SDS011;15461;41.652;9.378;2024-02-04T10:21:19;12.18;;;2.50;;
28176;SDS011;15461;41.652;9.378;2024-02-04T10:23:46;8.40;;;2.78;;
28176;SDS011;15461;41.652;9.378;2024-02-04T10:26:16;9.75;;;2.92;;
28176;SDS011;15461;41.652;9.378;2024-02-04T10:28:45;3.72;;;2.70;;
28176;SDS011;15461;41.652;9.378;2024-02-04T10:31:12;6.57;;;3.00;;
28176;SDS011;15461;41.652;9.378;2024-02-04T10:33:38;5.53;;;2.72;;
28176;SDS011;15461;41.652;9.378;2024-02-04T10:36:04;8.23;;;2.47;;
28176;SDS011;15461;41.652;9.378;2024-02-04T10:38:34;6.63;;;3.33;;
28176;SDS011;15461;41.652;9.378;2024-02-04T10:41:00;3.85;;;2.30;;
28176;SDS011;15461;41.652;9.378;2024-02-04T10:43:31;6.57;;;3.20;;
28176;SDS011;15461;41.652;9.378;2024-02-04T10:46:00;5.85;;;2.67;;
28176;SDS011;15461;41.652;9.378;2024-02-04T10:48:36;4.70;;;2.67;;
28176;SDS011;15461;41.652;9.378;2024-02-04T10:51:16;7.07;;;2.88;;
28176;SDS011;15461;41.652;9.378;2024-02-04T10:53:44;5.35;;;3.30;;
28176;SDS011;15461;41.652;9.378;2024-02-04T10:56:14;7.00;;;2.78;;
28176;SDS011;15461;41.652;9.378;2024-02-04T10:58:54;4.78;;;2.70;;
28176;SDS011;15461;41.652;9.378;2024-02-04T11:01:21;9.30;;;2.50;;
28176;SDS011;15461;41.652;9.378;2024-02-04T11:03:48;7.80;;;2.53;;
28176;SDS011;15461;41.652;9.378;2024-02-04T11:06:17;6.55;;;2.78;;
28176;SDS011;15461;41.652;9.378;2024-02-04T11:08:45;4.18;;;2.33;;
28176;SDS011;15461;41.652;9.378;2024-02-04T11:11:12;8.82;;;2.83;;
28176;SDS011;15461;41.652;9.378;2024-02-04T11:13:38;5.95;;;2.72;;
28176;SDS011;15461;41.652;9.378;2024-02-04T11:16:15;6.72;;;2.67;;
28176;SDS011;15461;41.652;9.378;2024-02-04T11:21:58;8.70;;;3.03;;
28176;SDS011;15461;41.652;9.378;2024-02-04T11:24:53;9.20;;;2.95;;
28176;SDS011;15461;41.652;9.378;2024-02-04T11:27:40;10.67;;;2.80;;
28176;SDS011;15461;41.652;9.378;2024-02-04T11:30:06;6.20;;;2.75;;
28176;SDS011;15461;41.652;9.378;2024-02-04T11:32:35;7.70;;;3.47;;
28176;SDS011;15461;41.652;9.378;2024-02-04T11:35:01;6.20;;;2.47;;
28176;SDS011;15461;41.652;9.378;2024-02-04T11:37:28;5.28;;;2.60;;
28176;SDS011;15461;41.652;9.378;2024-02-04T11:39:54;4.15;;;2.45;;
28176;SDS011;15461;41.652;9.378;2024-02-04T11:42:22;6.13;;;2.55;;
28176;SDS011;15461;41.652;9.378;2024-02-04T11:44:50;7.80;;;2.85;;
28176;SDS011;15461;41.652;9.378;2024-02-04T11:47:22;6.95;;;2.95;;
28176;SDS011;15461;41.652;9.378;2024-02-04T11:49:55;7.80;;;2.10;;
28176;SDS011;15461;41.652;9.378;2024-02-04T11:52:27;6.47;;;2.35;;
28176;SDS011;15461;41.652;9.378;2024-02-04T11:54:53;8.68;;;3.20;;
28176;SDS011;15461;41.652;9.378;2024-02-04T11:57:19;6.10;;;2.67;;
28176;SDS011;15461;41.652;9.378;2024-02-04T11:59:46;9.13;;;3.10;;
28176;SDS011;15461;41.652;9.378;2024-02-04T12:02:15;8.73;;;2.70;;
28176;SDS011;15461;41.652;9.378;2024-02-04T12:04:42;8.45;;;2.58;;
28176;SDS011;15461;41.652;9.378;2024-02-04T12:07:15;6.93;;;2.67;;
28176;SDS011;15461;41.652;9.378;2024-02-04T12:09:42;6.55;;;2.42;;
28176;SDS011;15461;41.652;9.378;2024-02-04T12:12:08;4.35;;;2.30;;
28176;SDS011;15461;41.652;9.378;2024-02-04T12:14:37;10.68;;;3.00;;
28176;SDS011;15461;41.652;9.378;2024-02-04T12:17:09;7.38;;;2.45;;
28176;SDS011;15461;41.652;9.378;2024-02-04T12:19:35;7.95;;;2.50;;
28176;SDS011;15461;41.652;9.378;2024-02-04T12:22:02;8.45;;;2.50;;
28176;SDS011;15461;41.652;9.378;2024-02-04T12:24:33;4.80;;;2.63;;
28176;SDS011;15461;41.652;9.378;2024-02-04T12:26:59;7.15;;;2.53;;
28176;SDS011;15461;41.652;9.378;2024-02-04T12:29:25;5.70;;;2.53;;
28176;SDS011;15461;41.652;9.378;2024-02-04T12:31:57;7.70;;;2.63;;
28176;SDS011;15461;41.652;9.378;2024-02-04T12:34:29;9.45;;;2.55;;
28176;SDS011;15461;41.652;9.378;2024-02-04T12:36:59;10.85;;;2.67;;
28176;SDS011;15461;41.652;9.378;2024-02-04T12:39:26;4.47;;;2.25;;
28176;SDS011;15461;41.652;9.378;2024-02-04T12:41:52;5.60;;;2.53;;
28176;SDS011;15461;41.652;9.378;2024-02-04T12:44:18;9.25;;;2.45;;
28176;SDS011;15461;41.652;9.378;2024-02-04T12:46:44;8.70;;;2.58;;
28176;SDS011;15461;41.652;9.378;2024-02-04T12:49:10;6.13;;;2.50;;
28176;SDS011;15461;41.652;9.378;2024-02-04T12:51:42;5.05;;;2.13;;
28176;SDS011;15461;41.652;9.378;2024-02-04T12:54:09;5.90;;;2.50;;
28176;SDS011;15461;41.652;9.378;2024-02-04T12:56:51;6.15;;;2.80;;
28176;SDS011;15461;41.652;9.378;2024-02-04T12:59:25;6.47;;;2.63;;
28176;SDS011;15461;41.652;9.378;2024-02-04T13:01:54;5.50;;;2.13;;
28176;SDS011;15461;41.652;9.378;2024-02-04T13:04:21;10.43;;;2.53;;
28176;SDS011;15461;41.652;9.378;2024-02-04T13:06:47;6.63;;;2.38;;
28176;SDS011;15461;41.652;9.378;2024-02-04T13:09:16;7.25;;;2.42;;
28176;SDS011;15461;41.652;9.378;2024-02-04T13:11:42;6.45;;;2.67;;
28176;SDS011;15461;41.652;9.378;2024-02-04T13:14:08;7.22;;;3.17;;
28176;SDS011;15461;41.652;9.378;2024-02-04T13:16:34;9.35;;;2.33;;
28176;SDS011;15461;41.652;9.378;2024-02-04T13:19:03;4.95;;;2.70;;
28176;SDS011;15461;41.652;9.378;2024-02-04T13:21:30;5.80;;;2.30;;
28176;SDS011;15461;41.652;9.378;2024-02-04T13:23:56;9.63;;;2.83;;
28176;SDS011;15461;41.652;9.378;2024-02-04T13:26:22;6.60;;;2.08;;
28176;SDS011;15461;41.652;9.378;2024-02-04T13:28:47;7.03;;;2.42;;
28176;SDS011;15461;41.652;9.378;2024-02-04T13:31:13;13.18;;;2.95;;
28176;SDS011;15461;41.652;9.378;2024-02-04T13:33:39;7.32;;;2.70;;
28176;SDS011;15461;41.652;9.378;2024-02-04T13:36:08;5.63;;;2.15;;
28176;SDS011;15461;41.652;9.378;2024-02-04T13:38:35;4.82;;;2.47;;
28176;SDS011;15461;41.652;9.378;2024-02-04T13:41:01;4.88;;;2.47;;
28176;SDS011;15461;41.652;9.378;2024-02-04T13:43:29;8.48;;;2.72;;
28176;SDS011;15461;41.652;9.378;2024-02-04T13:45:55;6.70;;;2.28;;
28176;SDS011;15461;41.652;9.378;2024-02-04T13:48:21;5.47;;;2.08;;
28176;SDS011;15461;41.652;9.378;2024-02-04T13:50:47;4.13;;;2.35;;
28176;SDS011;15461;41.652;9.378;2024-02-04T13:53:13;11.00;;;2.50;;
28176;SDS011;15461;41.652;9.378;2024-02-04T13:55:39;6.35;;;2.78;;
28176;SDS011;15461;41.652;9.378;2024-02-04T13:58:05;5.68;;;2.00;;
28176;SDS011;15461;41.652;9.378;2024-02-04T14:00:31;6.28;;;2.50;;
28176;SDS011;15461;41.652;9.378;2024-02-04T14:02:57;9.43;;;2.65;;
28176;SDS011;15461;41.652;9.378;2024-02-04T14:05:23;9.85;;;2.33;;
28176;SDS011;15461;41.652;9.378;2024-02-04T14:07:50;6.22;;;2.40;;
28176;SDS011;15461;41.652;9.378;2024-02-04T14:10:16;6.70;;;2.60;;
28176;SDS011;15461;41.652;9.378;2024-02-04T14:12:43;10.85;;;2.72;;
28176;SDS011;15461;41.652;9.378;2024-02-04T14:15:11;6.65;;;2.65;;
28176;SDS011;15461;41.652;9.378;2024-02-04T14:17:37;8.10;;;2.60;;
28176;SDS011;15461;41.652;9.378;2024-02-04T14:20:04;9.35;;;2.65;;
28176;SDS011;15461;41.652;9.378;2024-02-04T14:22:31;6.47;;;2.30;;
28176;SDS011;15461;41.652;9.378;2024-02-04T14:24:57;6.45;;;2.55;;
28176;SDS011;15461;41.652;9.378;2024-02-04T14:27:23;7.47;;;2.40;;
28176;SDS011;15461;41.652;9.378;2024-02-04T14:29:50;5.00;;;2.17;;
28176;SDS011;15461;41.652;9.378;2024-02-04T14:32:16;7.50;;;2.30;;
28176;SDS011;15461;41.652;9.378;2024-02-04T14:34:41;5.68;;;2.15;;
28176;SDS011;15461;41.652;9.378;2024-02-04T14:37:07;10.90;;;2.50;;
28176;SDS011;15461;41.652;9.378;2024-02-04T14:39:33;6.38;;;2.30;;
28176;SDS011;15461;41.652;9.378;2024-02-04T14:41:59;5.45;;;2.35;;
28176;SDS011;15461;41.652;9.378;2024-02-04T14:44:25;11.65;;;2.60;;
28176;SDS011;15461;41.652;9.378;2024-02-04T14:46:51;5.43;;;2.60;;
28176;SDS011;15461;41.652;9.378;2024-02-04T14:49:16;6.20;;;2.22;;
28176;SDS011;15461;41.652;9.378;2024-02-04T14:51:42;8.57;;;2.55;;